Pagrindinis puslapis
METAR-TAF:

METAR-TAF

Oro uostai :

Longjyrbienas, Norvegija

platuma: 78-15N, ilguma: 015-28E, Aukštis: 2 m

Dabartinis oras

Ataskaita buvo paskelbta 20 minutes, ne 19:50 UTC
Vėjas 14 kt iš Vakarų/Šiaurės Vakarų
Temperatūra -7°C
Drėgmė 62%
Slėgis 986 hPa
Matomumas 10 km arba daugiau
Išsisklaidę debesys ne aukštis 3100 ft
Su prošvaistėmis ne aukštis 5500 ft

METAR: ENSB 251950Z 30014KT 9999 SCT031 BKN055 M07/M13 Q0986 RMK WIND 1400FT 29015KT

Laikas: 21:10 (20:10 UTC)

Prognozė

Prognozė galioja nuo 25 metu 18 UTC su 26 metu 18 UTC
Vėjas 15 kt iš Vakarų/Šiaurės Vakarų
Matomumas 10 km arba daugiau
Mažai debesys ne aukštis 2500 ft
Su prošvaistėmis ne aukštis 4000 ft

TAF: ENSB 2518/2618 30015KT 9999 FEW025 BKN040

Orai ataskaitas ir orų prognozės (METAR, TAF).

turimą stotys yra geltonos ir raudonos taškus žemėlapyje.

Perkelti pele per norėdami pamatyti stoties vardą.

Tada spustelėkite, norėdami matyti oro stebėjimo ir prognozės.

Norėdami pakeisti žemėlapį: spustelėkite ant žalios mygtukų su juodo kryžiaus žemyn,; žalią mygtuką su brūkšneliu, jei norite nutolinti; arba žalių rodyklių gretimoms žemėlapius.


METAR-TAF: